Data for 04/10/2016

Time Sea-Level Adjusted Pressure Absolute Pressure Temperature Relative Humidity Dew Point   
(mb) (inHg) (mb) (inHg) (C) (F) (%) (C) (F)
00:05 1011 29.85 840 24.81 7.4 45.3 46 -3.3 26
00:10 1011 29.85 840 24.81 7.3 45.1 47 -3.3 26.1
00:15 1011 29.85 840 24.81 7.2 45 47 -3.4 25.9
00:20 1011 29.85 840 24.81 7.2 44.9 47 -3.5 25.7
00:25 1011 29.85 840 24.81 7.2 45 47 -3.5 25.8
00:30 1011 29.85 840 24.81 7.2 44.9 46 -3.6 25.5
00:35 1011 29.85 840 24.81 7.2 44.9 46 -3.6 25.5
00:40 1011 29.85 840 24.81 7.2 45 46 -3.6 25.5
00:45 1011 29.85 840 24.81 7.1 44.8 46 -3.6 25.4
00:50 1011 29.85 841 24.83 7.2 44.9 46 -3.7 25.3
00:55 1011 29.85 840 24.81 7.1 44.7 46 -3.7 25.4
01:00 1011 29.85 840 24.81 7 44.6 46 -3.7 25.3
01:05 1011 29.85 841 24.83 6.9 44.4 46 -3.8 25.2
01:10 1011 29.85 841 24.83 6.8 44.3 47 -3.7 25.3
01:15 1011 29.85 841 24.83 6.7 44.1 47 -3.7 25.3
01:20 1011 29.85 841 24.83 6.6 43.9 47 -3.8 25.2
01:25 1011 29.85 841 24.83 6.6 43.8 47 -3.8 25.1
01:30 1011 29.85 841 24.83 6.5 43.8 47 -3.9 25
01:35 1012 29.88 841 24.83 6.5 43.7 47 -3.9 25
01:40 1012 29.88 841 24.83 6.4 43.6 47 -3.9 24.9
01:45 1012 29.88 841 24.83 6.4 43.6 47 -4 24.8
01:50 1012 29.88 841 24.83 6.4 43.5 47 -4 24.7
01:55 1012 29.88 841 24.83 6.4 43.5 47 -4 24.9
02:00 1012 29.88 841 24.83 6.2 43.2 48 -3.9 25.1
02:05 1012 29.88 841 24.83 6.2 43.1 48 -4 24.9
02:10 1012 29.88 841 24.83 6.2 43.1 48 -4.1 24.6
02:15 1012 29.88 841 24.83 6.2 43.2 48 -3.9 25
02:20 1012 29.88 842 24.86 6.1 42.9 48 -4 24.8
02:25 1012 29.88 842 24.86 6.1 43 48 -4.1 24.7
02:30 1012 29.88 842 24.86 6.1 42.9 48 -4.1 24.7
02:35 1012 29.88 842 24.86 6.2 43.1 48 -4 24.7
02:40 1013 29.91 842 24.86 6.1 42.9 48 -4 24.7
02:45 1013 29.91 842 24.86 6.1 42.9 48 -4.1 24.7
02:50 1013 29.91 842 24.86 6.1 42.9 48 -4 24.7
02:55 1013 29.91 842 24.86 6 42.8 48 -4 24.8
03:00 1013 29.91 842 24.86 6 42.9 48 -4.1 24.6
03:05 1013 29.91 842 24.86 6 42.9 48 -4.1 24.6
03:10 1013 29.91 842 24.86 6 42.9 48 -4.1 24.6
03:15 1013 29.91 842 24.86 6.1 42.9 48 -4.1 24.6
03:20 1013 29.91 842 24.86 6 42.8 48 -4.2 24.5
03:25 1013 29.91 842 24.86 6 42.9 48 -4.2 24.5
03:30 1013 29.91 842 24.86 6.1 42.9 48 -4.2 24.5
03:35 1013 29.91 842 24.86 6 42.9 47 -4.3 24.3
03:40 1013 29.91 842 24.86 6.1 43.1 47 -4.2 24.4
03:45 1013 29.91 842 24.86 6.1 43.1 47 -4.2 24.5
03:50 1013 29.91 842 24.86 6.2 43.2 47 -4.2 24.5
03:55 1013 29.91 842 24.86 6.2 43.1 47 -4.2 24.4
04:00 1013 29.91 842 24.86 6.1 43 47 -4.2 24.4
04:05 1013 29.91 842 24.86 6.1 42.9 48 -4.2 24.5
04:10 1013 29.91 842 24.86 6 42.7 48 -4.1 24.5
04:15 1013 29.91 842 24.86 5.9 42.6 49 -4.1 24.6
04:20 1013 29.91 843 24.89 5.8 42.5 48 -4.2 24.4
04:25 1013 29.91 843 24.89 5.7 42.3 49 -4.2 24.4
04:30 1013 29.91 843 24.89 5.6 42.1 49 -4.2 24.5
04:35 1013 29.91 843 24.89 5.5 41.9 50 -4.2 24.5
04:40 1013 29.91 843 24.89 5.5 41.9 49 -4.2 24.4
04:45 1014 29.94 843 24.89 5.4 41.8 50 -4.3 24.3
04:50 1014 29.94 843 24.89 5.4 41.7 50 -4.2 24.5
04:55 1014 29.94 843 24.89 5.3 41.6 50 -4.3 24.3
05:00 1014 29.94 843 24.89 5.3 41.5 50 -4.4 24.1
05:05 1014 29.94 843 24.89 5.3 41.6 50 -4.3 24.3
05:10 1014 29.94 843 24.89 5.2 41.4 50 -4.4 24
05:15 1014 29.94 843 24.89 5.2 41.4 50 -4.4 24
05:20 1014 29.94 843 24.89 5.3 41.5 49 -4.5 24
05:25 1014 29.94 843 24.89 5.3 41.6 49 -4.4 24
05:30 1014 29.94 843 24.89 5.4 41.7 49 -4.6 23.8
05:35 1014 29.94 843 24.89 5.4 41.8 49 -4.4 24
05:40 1014 29.94 843 24.89 5.4 41.8 48 -4.6 23.7
05:45 1014 29.94 843 24.89 5.5 41.9 49 -4.4 24
05:50 1014 29.94 843 24.89 5.5 41.8 48 -4.6 23.8
05:55 1014 29.94 844 24.92 5.5 41.9 48 -4.6 23.7
06:00 1014 29.94 844 24.92 5.5 41.9 48 -4.6 23.7
06:05 1015 29.97 844 24.92 5.5 41.9 48 -4.7 23.6
06:10 1015 29.97 844 24.92 5.5 42 48 -4.7 23.6
06:15 1015 29.97 844 24.92 5.5 42 48 -4.7 23.6
06:20 1015 29.97 844 24.92 5.5 41.9 48 -4.7 23.6
06:25 1015 29.97 844 24.92 5.5 41.9 48 -4.5 23.8
06:30 1015 29.97 844 24.92 5.5 41.9 48 -4.6 23.8
06:35 1015 29.97 844 24.92 5.5 41.8 48 -4.6 23.7
06:40 1015 29.97 844 24.92 5.4 41.8 49 -4.5 23.9
06:45 1015 29.97 844 24.92 5.4 41.7 49 -4.5 23.9
06:50 1015 29.97 844 24.92 5.4 41.7 49 -4.5 23.9
06:55 1015 29.97 844 24.92 5.4 41.7 49 -4.5 23.9
07:00 1015 29.97 844 24.92 5.4 41.7 49 -4.4 24
07:05 1015 29.97 844 24.92 5.3 41.6 50 -4.3 24.3
07:10 1015 29.97 844 24.92 5.3 41.6 50 -4.2 24.4
07:15 1015 29.97 844 24.92 5.3 41.5 51 -4.2 24.5
07:20 1015 29.97 844 24.92 5.2 41.4 51 -4.1 24.7
07:25 1015 29.97 845 24.95 5.2 41.3 52 -3.9 24.9
07:30 1015 29.97 845 24.95 5.2 41.4 52 -3.8 25.2
07:35 1016 30 845 24.95 5.2 41.3 53 -3.6 25.5
07:40 1016 30 845 24.95 5.1 41.2 54 -3.5 25.7
07:45 1016 30 845 24.95 5.1 41.2 54 -3.3 26
07:50 1016 30 845 24.95 5.1 41.2 55 -3.3 26.1
07:55 1016 30 845 24.95 5.1 41.2 55 -3.1 26.3
08:00 1016 30 845 24.95 5.1 41.2 56 -3 26.7
08:05 1016 30 845 24.95 5.1 41.3 56 -2.8 26.9
08:10 1016 30 845 24.95 5.1 41.2 57 -2.6 27.2
08:15 1016 30 845 24.95 5.1 41.2 58 -2.5 27.4
08:20 1016 30 845 24.95 5.2 41.4 58 -2.5 27.6
08:25 1016 30 845 24.95 5.2 41.3 59 -2.1 28.1
08:30 1016 30 845 24.95 5.2 41.3 59 -2.2 28.1
08:35 1016 30 845 24.95 5.2 41.4 59 -2.1 28.2
08:40 1016 30 845 24.95 5.2 41.4 60 -2 28.5
08:45 1016 30 845 24.95 5.3 41.6 60 -1.9 28.6
08:50 1016 30 845 24.95 5.3 41.5 61 -1.6 29.1
08:55 1016 30 845 24.95 5.2 41.4 61 -1.7 29
09:00 1016 30 845 24.95 5.2 41.3 62 -1.5 29.3
09:05 1016 30 845 24.95 5.2 41.3 62 -1.6 29.2
09:10 1016 30 845 24.95 5.1 41.1 63 -1.4 29.4
09:15 1016 30 845 24.95 5 41 63 -1.4 29.5
09:20 1016 30 845 24.95 5 41 63 -1.4 29.4
09:25 1016 30 845 24.95 5.1 41.1 63 -1.5 29.4
09:30 1016 30 845 24.95 5.1 41.1 62 -1.6 29.1
09:35 1016 30 845 24.95 5.3 41.6 61 -1.7 29
09:40 1016 30 845 24.95 5.2 41.4 61 -1.6 29
09:45 1016 30 845 24.95 5.2 41.3 61 -1.9 28.7
09:50 1016 30 845 24.95 5.1 41.2 61 -1.8 28.7
09:55 1016 30 845 24.95 5.1 41.2 60 -1.9 28.5
10:00 1016 30 845 24.95 5.3 41.6 59 -2.1 28.2
10:05 1016 30 845 24.95 5.6 42 58 -2.1 28.3
10:10 1016 30 846 24.98 5.5 41.9 59 -2 28.4
10:15 1016 30 846 24.98 5.8 42.5 58 -1.9 28.6
10:20 1016 30 846 24.98 5.9 42.6 57 -1.8 28.7
10:25 1016 30 846 24.98 5.9 42.5 56 -2.2 28.1
10:30 1016 30 846 24.98 6.4 43.6 53 -2.4 27.7
10:35 1016 30 846 24.98 6.1 43 55 -2.1 28.2
10:40 1016 30 846 24.98 6.2 43.2 54 -2.3 27.8
10:45 1016 30 846 24.98 6.4 43.5 53 -2.5 27.5
10:50 1016 30 846 24.98 6.6 43.8 54 -2.2 28.1
10:55 1016 30 846 24.98 6.7 44 53 -2.2 28
11:00 1016 30 846 24.98 6.9 44.5 53 -2 28.4
11:05 1016 30 846 24.98 7 44.7 52 -2.1 28.2
11:10 1016 30 846 24.98 6.9 44.5 53 -1.9 28.6
11:15 1016 30 846 24.98 6.8 44.2 53 -2 28.3
11:20 1016 30 846 24.98 7.1 44.8 52 -2.1 28.3
11:25 1016 30 846 24.98 7.4 45.3 51 -2 28.5
11:30 1016 30 845 24.95 7.8 46 50 -2.1 28.2
11:35 1016 30 845 24.95 8 46.4 49 -2 28.4
11:40 1016 30 845 24.95 8.1 46.5 49 -1.9 28.6
11:45 1016 30 845 24.95 8 46.3 49 -2.2 28
11:50 1016 30 845 24.95 8.5 47.3 46 -2.3 27.8
11:55 1016 30 845 24.95 8.8 47.9 46 -2.1 28.2
12:00 1016 30 845 24.95 9.1 48.3 44 -2.6 27.3
12:05 1016 30 845 24.95 9.1 48.3 45 -2.1 28.2
12:10 1016 30 845 24.95 8.9 48.1 44 -2.6 27.3
12:15 1016 30 845 24.95 9.5 49 45 -1.9 28.5
12:20 1016 30 845 24.95 9.5 49.1 43 -2.6 27.4
12:25 1016 30 845 24.95 9.4 49 43 -2.4 27.7
12:30 1016 30 845 24.95 10.1 50.1 42 -2.2 28
12:35 1016 30 845 24.95 10 50 42 -2.4 27.8
12:40 1016 30 845 24.95 10.9 51.6 38 -2.7 27.2
12:45 1016 30 845 24.95 10.7 51.3 42 -1.8 28.8
12:50 1016 30 845 24.95 11.3 52.4 37 -2.8 26.9
12:55 1015 29.97 845 24.95 11 51.7 39 -2.3 27.9
13:00 1015 29.97 845 24.95 11 51.8 38 -2.6 27.4
13:05 1015 29.97 845 24.95 11.2 52.1 38 -2.7 27.2
13:10 1015 29.97 845 24.95 10.8 51.5 41 -1.8 28.7
13:15 1015 29.97 845 24.95 10 50 40 -2.9 26.8
13:20 1015 29.97 845 24.95 10.3 50.6 40 -2.7 27.2
13:25 1015 29.97 844 24.92 10.6 51.1 40 -2.4 27.7
13:30 1015 29.97 844 24.92 10.8 51.4 40 -2.4 27.7
13:35 1015 29.97 845 24.95 11.1 51.9 38 -2.6 27.3
13:40 1015 29.97 845 24.95 11.2 52.2 37 -2.7 27.1
13:45 1015 29.97 845 24.95 11.9 53.5 35 -2.8 26.9
13:50 1015 29.97 844 24.92 12.2 54 37 -2.1 28.2
13:55 1015 29.97 844 24.92 11.8 53.2 39 -1.6 29.2
14:00 1015 29.97 844 24.92 10.4 50.7 41 -2.1 28.2
14:05 1015 29.97 844 24.92 10.3 50.6 41 -2.3 27.8
14:10 1015 29.97 844 24.92 10.6 51 40 -2.6 27.4
14:15 1015 29.97 844 24.92 11.8 53.2 37 -2.4 27.7
14:20 1015 29.97 844 24.92 11.5 52.7 38 -2.2 28
14:25 1015 29.97 844 24.92 11.5 52.7 38 -2.3 27.9
14:30 1015 29.97 844 24.92 11 51.8 39 -2.4 27.6
14:35 1015 29.97 844 24.92 11.4 52.5 37 -2.5 27.4
14:40 1015 29.97 844 24.92 11.8 53.2 38 -2 28.4
14:45 1015 29.97 844 24.92 11.8 53.2 36 -2.7 27.1
14:50 1015 29.97 844 24.92 11.7 53.1 38 -2.2 28.1
14:55 1015 29.97 844 24.92 11.3 52.3 38 -2.4 27.7
15:00 1015 29.97 844 24.92 11.4 52.5 37 -2.9 26.9
15:05 1015 29.97 844 24.92 12.5 54.4 35 -2.6 27.4
15:10 1015 29.97 844 24.92 12.5 54.4 36 -2 28.4
15:15 1015 29.97 844 24.92 12.9 55.1 34 -2.5 27.4
15:20 1015 29.97 844 24.92 12.5 54.6 38 -1.5 29.3
15:25 1015 29.97 844 24.92 12 53.6 37 -2.3 27.8
15:30 1015 29.97 844 24.92 12.4 54.4 33 -3.3 26.1
15:35 1015 29.97 844 24.92 13.9 57.1 32 -2.5 27.6
15:40 1015 29.97 844 24.92 13 55.3 34 -2.5 27.5
15:45 1015 29.97 844 24.92 13.1 55.6 33 -2.8 27
15:50 1015 29.97 844 24.92 13.8 56.8 32 -2.7 27.1
15:55 1015 29.97 844 24.92 14.4 57.9 30 -2.8 27
16:00 1015 29.97 844 24.92 14.8 58.6 30 -2.7 27.1
16:05 1015 29.97 844 24.92 14.3 57.7 33 -1.7 29
16:10 1015 29.97 844 24.92 12.5 54.4 36 -2.3 27.8
16:15 1015 29.97 844 24.92 12.7 54.9 35 -2.4 27.7
16:20 1015 29.97 844 24.92 12.6 54.6 33 -3.1 26.4
16:25 1015 29.97 844 24.92 13.4 56.1 31 -3.1 26.4
16:30 1015 29.97 844 24.92 13.4 56.1 32 -2.8 27
16:35 1015 29.97 844 24.92 13.7 56.7 31 -2.9 26.8
16:40 1015 29.97 844 24.92 13.9 56.9 33 -2.1 28.3
16:45 1015 29.97 844 24.92 12.9 55.3 34 -2.6 27.4
16:50 1015 29.97 844 24.92 12.6 54.7 34 -2.8 26.9
16:55 1015 29.97 844 24.92 12.9 55.2 33 -3 26.7
17:00 1015 29.97 844 24.92 12.9 55.2 33 -2.8 26.9
17:05 1015 29.97 844 24.92 12.7 54.8 34 -2.8 27
17:10 1015 29.97 844 24.92 12.4 54.3 36 -2 28.3
17:15 1015 29.97 844 24.92 11.9 53.4 37 -2.3 27.8
17:20 1015 29.97 844 24.92 12 53.6 35 -2.9 26.7
17:25 1015 29.97 844 24.92 12.4 54.3 35 -2.6 27.3
17:30 1015 29.97 844 24.92 12.2 53.9 36 -2.5 27.6
17:35 1015 29.97 844 24.92 11.9 53.5 36 -2.7 27.2
17:40 1015 29.97 844 24.92 12 53.6 36 -2.7 27.2
17:45 1015 29.97 844 24.92 11.5 52.6 37 -2.8 27
17:50 1015 29.97 844 24.92 11.4 52.4 38 -2.2 28
17:55 1015 29.97 844 24.92 11.4 52.5 39 -2.2 28.1
18:00 1015 29.97 844 24.92 11 51.8 39 -2.3 27.9
18:05 1015 29.97 844 24.92 10.6 51.1 40 -2.4 27.7
18:10 1015 29.97 844 24.92 10.5 50.8 40 -2.4 27.7
18:15 1015 29.97 844 24.92 10.3 50.6 41 -2.2 28
18:20 1015 29.97 844 24.92 10.2 50.4 41 -2.3 27.9
18:25 1015 29.97 844 24.92 10.1 50.2 42 -2.2 28
18:30 1015 29.97 844 24.92 10 50.1 42 -2.2 28.1
18:35 1015 29.97 844 24.92 10 50 42 -2.3 27.9
18:40 1015 29.97 844 24.92 9.9 49.8 42 -2.3 27.9
18:45 1015 29.97 844 24.92 9.8 49.6 43 -2.3 27.9
18:50 1015 29.97 844 24.92 9.6 49.3 43 -2.3 27.9
18:55 1015 29.97 844 24.92 9.5 49.1 44 -2.3 27.9
19:00 1015 29.97 844 24.92 9.3 48.8 43 -2.4 27.6
19:05 1015 29.97 844 24.92 9.2 48.5 44 -2.3 27.8
19:10 1015 29.97 844 24.92 9 48.2 44 -2.4 27.6
19:15 1015 29.97 844 24.92 8.9 48 45 -2.4 27.8
19:20 1015 29.97 844 24.92 8.7 47.6 46 -2.3 27.8
19:25 1015 29.97 844 24.92 8.5 47.3 46 -2.3 27.8
19:30 1015 29.97 845 24.95 8.4 47.1 47 -2.3 27.8
19:35 1015 29.97 845 24.95 8.2 46.8 47 -2.3 27.8
19:40 1015 29.97 845 24.95 8 46.5 48 -2.3 27.9
19:45 1016 30 845 24.95 7.9 46.3 48 -2.3 27.8
19:50 1016 30 845 24.95 7.8 46.1 49 -2.3 27.8
19:55 1016 30 845 24.95 7.7 45.9 49 -2.4 27.6
20:00 1016 30 845 24.95 7.6 45.7 49 -2.4 27.7
20:05 1016 30 845 24.95 7.5 45.6 49 -2.5 27.6
20:10 1016 30 845 24.95 7.5 45.5 49 -2.6 27.4
20:15 1016 30 845 24.95 7.5 45.4 49 -2.7 27.2
20:20 1016 30 845 24.95 7.4 45.2 49 -2.6 27.4
20:25 1016 30 845 24.95 7.3 45.1 49 -2.8 27
20:30 1016 30 845 24.95 7.3 45.2 48 -2.8 26.9
20:35 1016 30 845 24.95 7.3 45.1 49 -2.8 26.9
20:40 1016 30 845 24.95 7.2 44.9 49 -2.9 26.8
20:45 1016 30 845 24.95 7 44.6 49 -2.8 26.9
20:50 1016 30 845 24.95 6.9 44.4 49 -2.9 26.7
20:55 1016 30 845 24.95 6.9 44.3 49 -3.1 26.5
21:00 1016 30 845 24.95 6.8 44.2 50 -3 26.6
21:05 1016 30 845 24.95 6.7 44 50 -3.1 26.4
21:10 1016 30 845 24.95 6.6 44 49 -3.2 26.2
21:15 1016 30 845 24.95 6.6 43.9 49 -3.4 25.8
21:20 1016 30 845 24.95 6.7 44 48 -3.6 25.4
21:25 1016 30 845 24.95 6.6 43.8 47 -4 24.8
21:30 1016 30 845 24.95 6.6 43.8 46 -4.2 24.5
21:35 1016 30 845 24.95 6.5 43.7 47 -4.1 24.6
21:40 1016 30 845 24.95 6.4 43.5 47 -4.2 24.4
21:45 1016 30 845 24.95 6.3 43.4 47 -4.2 24.4
21:50 1016 30 845 24.95 6.3 43.3 47 -4.3 24.2
21:55 1016 30 845 24.95 6.2 43.2 47 -4.3 24.3
22:00 1016 30 845 24.95 6 42.9 47 -4.5 23.8
22:05 1016 30 845 24.95 6 42.7 47 -4.5 23.9
22:10 1016 30 845 24.95 5.8 42.5 47 -4.5 23.8
22:15 1016 30 845 24.95 5.8 42.4 47 -4.7 23.5
22:20 1016 30 845 24.95 5.7 42.3 47 -4.7 23.6
22:25 1016 30 845 24.95 5.6 42 47 -4.9 23.3
22:30 1016 30 845 24.95 5.5 41.9 48 -4.8 23.4
22:35 1016 30 845 24.95 5.4 41.8 47 -5.1 22.9
22:40 1016 30 845 24.95 5.5 41.9 46 -5.1 22.8
22:45 1016 30 845 24.95 5.4 41.7 45 -5.5 22.2
22:50 1016 30 845 24.95 5.4 41.6 46 -5.4 22.3
22:55 1016 30 845 24.95 5.2 41.4 46 -5.4 22.2
23:00 1016 30 845 24.95 5.2 41.4 45 -5.7 21.8
23:05 1016 30 845 24.95 5.2 41.3 45 -5.9 21.4
23:10 1016 30 845 24.95 5.2 41.3 45 -5.9 21.4
23:15 1016 30 846 24.98 5.1 41.1 46 -5.7 21.8
23:20 1016 30 846 24.98 5 41 45 -5.9 21.4
23:25 1016 30 845 24.95 5 41 45 -6.1 21.1
23:30 1016 30 845 24.95 5 41 44 -6.2 20.8
23:35 1016 30 845 24.95 4.9 40.8 44 -6.3 20.6
23:40 1016 30 846 24.98 4.8 40.7 45 -6.3 20.7
23:45 1016 30 846 24.98 4.7 40.5 45 -6.2 20.8
23:50 1016 30 846 24.98 4.6 40.2 46 -6.2 20.9
23:55 1016 30 846 24.98 4.5 40 46 -6.2 20.9
24:00 1016 30 846 24.98 4.3 39.7 46 -6.2 20.9